Time;durP1;ratioP1;P1;durP2;ratioP2;P2;SDS_P1;SDS_P2;PMS_P1;PMS_P2;Temp;Humidity;BMP_temperature;BMP_pressure;BME280_temperature;BME280_humidity;BME280_pressure;Samples;Min_cycle;Max_cycle;Signal;HPM_P1;HPM_P2
2023/05/24 00:00:18;;;;;;;1.08;0.60;;;;;;;22.42;30.20;101279.00;4485213;28;20100;-66
2023/05/24 00:02:28;;;;;;;1.17;0.50;;;;;;;22.42;29.81;101284.75;4487302;28;20045;-66
2023/05/24 00:04:40;;;;;;;1.52;0.63;;;;;;;22.39;29.92;101273.97;4484845;28;20108;-66
2023/05/24 00:06:53;;;;;;;1.13;0.60;;;;;;;22.42;30.06;101281.88;4486409;28;20034;-66
2023/05/24 00:09:03;;;;;;;1.40;0.60;;;;;;;22.40;29.85;101275.63;4485391;28;20042;-66
2023/05/24 00:11:14;;;;;;;1.60;0.77;;;;;;;22.41;29.70;101285.94;4483256;28;20109;-65
2023/05/24 00:13:25;;;;;;;0.98;0.70;;;;;;;22.38;29.92;101278.88;4483961;28;20121;-66
2023/05/24 00:15:36;;;;;;;0.98;0.50;;;;;;;22.40;29.86;101284.28;4485778;28;20174;-66
2023/05/24 00:17:46;;;;;;;1.83;0.80;;;;;;;22.40;29.68;101284.28;4487114;28;20202;-66
2023/05/24 00:19:58;;;;;;;1.05;0.50;;;;;;;22.39;29.71;101282.59;4484523;28;20414;-66
2023/05/24 00:22:08;;;;;;;1.83;0.70;;;;;;;22.35;29.92;101285.38;4486604;28;20531;-65
2023/05/24 00:24:19;;;;;;;2.15;0.70;;;;;;;22.39;29.90;101286.31;4485901;28;20039;-65
2023/05/24 00:26:29;;;;;;;1.10;0.60;;;;;;;22.38;29.80;101289.53;4484853;28;20109;-65
2023/05/24 00:28:40;;;;;;;1.23;0.60;;;;;;;22.35;30.02;101288.25;4485201;28;20041;-66
2023/05/24 00:30:51;;;;;;;0.80;0.60;;;;;;;22.34;29.54;101288.59;4502455;28;20034;-66
2023/05/24 00:33:01;;;;;;;1.52;0.60;;;;;;;22.39;29.85;101299.88;4486136;28;20667;-66
2023/05/24 00:35:14;;;;;;;1.15;0.68;;;;;;;22.37;29.96;101285.00;4485657;28;20065;-66
2023/05/24 00:37:25;;;;;;;2.47;0.90;;;;;;;22.32;29.67;101276.63;4483885;28;20354;-66
2023/05/24 00:39:35;;;;;;;0.90;0.60;;;;;;;22.32;29.79;101273.75;4484154;28;20173;-66
2023/05/24 00:41:46;;;;;;;1.30;0.80;;;;;;;22.31;29.52;101266.31;4500993;28;20033;-66
2023/05/24 00:43:56;;;;;;;1.58;0.70;;;;;;;22.35;29.78;101267.25;4485332;28;20054;-66
2023/05/24 00:46:30;;;;;;;1.55;0.82;;;;;;;22.36;29.76;101266.91;4485557;28;20055;-66
2023/05/24 00:48:42;;;;;;;1.15;0.50;;;;;;;22.36;29.87;101266.06;4485830;28;20161;-66
2023/05/24 00:50:52;;;;;;;0.90;0.60;;;;;;;22.32;29.81;101262.22;4486955;28;20037;-66
2023/05/24 00:53:03;;;;;;;1.17;0.70;;;;;;;22.35;29.97;101261.50;4486307;28;20041;-66
2023/05/24 00:55:14;;;;;;;0.98;0.60;;;;;;;22.36;29.73;101269.78;4486592;28;20026;-66
2023/05/24 00:57:24;;;;;;;1.20;0.65;;;;;;;22.31;29.37;101261.38;4492225;28;20041;-66
2023/05/24 00:59:35;;;;;;;1.45;0.75;;;;;;;22.32;29.98;101262.22;4486192;28;20137;-66
2023/05/24 01:01:48;;;;;;;1.55;0.70;;;;;;;22.32;29.56;101256.47;4501422;28;20069;-66
2023/05/24 01:03:58;;;;;;;1.33;0.60;;;;;;;22.33;29.69;101258.16;4485584;28;20044;-66
2023/05/24 01:06:09;;;;;;;1.58;0.70;;;;;;;22.34;30.10;101266.44;4483809;28;20097;-65
2023/05/24 01:08:41;;;;;;;1.42;0.50;;;;;;;22.33;30.11;101259.00;4484474;28;20721;-66
2023/05/24 01:11:00;;;;;;;1.92;0.80;;;;;;;22.33;30.04;101258.16;4499577;28;20048;-65
2023/05/24 01:13:32;;;;;;;1.23;0.60;;;;;;;22.33;30.20;101263.91;4488027;28;20042;-66
2023/05/24 01:15:51;;;;;;;0.95;0.55;;;;;;;22.33;29.85;101258.16;4482882;28;20793;-65
2023/05/24 01:18:08;;;;;;;1.00;0.60;;;;;;;22.32;29.72;101253.59;4484183;28;20046;-66
2023/05/24 01:20:19;;;;;;;;;;;;;;;22.32;29.71;101262.22;4484164;28;20546;-65
2023/05/24 01:23:06;;;;;;;1.65;0.65;;;;;;;22.31;29.67;101260.56;4485524;28;19969;-66
2023/05/24 01:25:47;;;;;;;1.33;0.60;;;;;;;22.29;29.87;101257.22;4487623;28;20295;-65
2023/05/24 01:27:58;;;;;;;1.13;0.60;;;;;;;22.29;29.75;101258.06;4487695;28;20117;-65
2023/05/24 01:30:09;;;;;;;1.45;0.60;;;;;;;22.27;30.00;101257.56;4487585;28;20043;-66
2023/05/24 01:32:20;;;;;;;2.08;0.68;;;;;;;22.28;30.23;101259.25;4504176;28;20026;-66
2023/05/24 01:34:30;;;;;;;1.85;0.60;;;;;;;22.28;29.90;101250.63;4489130;28;20073;-66
2023/05/24 01:36:40;;;;;;;0.98;0.70;;;;;;;22.26;29.60;101244.41;4487044;28;20121;-66
2023/05/24 01:38:51;;;;;;;0.95;0.50;;;;;;;22.27;30.03;101243.19;4486849;28;20077;-66
2023/05/24 01:41:15;;;;;;;0.82;0.50;;;;;;;22.27;29.74;101248.94;4488181;28;20129;-66
2023/05/24 01:43:39;;;;;;;0.77;0.45;;;;;;;22.27;29.90;101242.34;4487723;28;20501;-66
2023/05/24 01:45:55;;;;;;;1.13;0.55;;;;;;;22.12;29.82;101210.28;4487373;28;21445;-66
2023/05/24 01:48:50;;;;;;;1.65;0.70;;;;;;;22.26;29.88;101235.78;4487250;28;20118;-66
2023/05/24 01:51:06;;;;;;;1.05;0.80;;;;;;;22.26;30.27;101241.53;4486548;28;20655;-66
2023/05/24 01:53:18;;;;;;;1.33;0.70;;;;;;;22.23;30.29;101231.59;4486500;28;20661;-66
2023/05/24 01:55:31;;;;;;;1.23;0.70;;;;;;;22.23;30.02;101228.69;4487285;28;20022;-66
2023/05/24 01:57:46;;;;;;;1.15;0.70;;;;;;;22.22;30.17;101226.19;4503125;28;20661;-65
2023/05/24 01:59:59;;;;;;;1.63;0.70;;;;;;;22.24;30.29;101238.19;4487860;28;20085;-66
2023/05/24 02:02:10;;;;;;;1.35;0.60;;;;;;;22.23;29.82;101237.31;4487496;28;20034;-66
2023/05/24 02:04:20;;;;;;;1.48;0.65;;;;;;;22.25;30.24;101224.66;4495747;28;20631;-66
2023/05/24 02:06:31;;;;;;;1.08;0.70;;;;;;;22.15;30.17;101218.19;4493413;28;20042;-66
2023/05/24 02:08:41;;;;;;;1.60;0.60;;;;;;;22.21;30.44;101216.72;4494499;28;20041;-66
2023/05/24 02:10:52;;;;;;;0.90;0.65;;;;;;;22.21;30.16;101210.16;4488693;28;20038;-65
2023/05/24 02:13:02;;;;;;;0.80;0.60;;;;;;;22.20;30.23;101209.31;4489096;28;20030;-65
2023/05/24 02:15:13;;;;;;;1.55;0.77;;;;;;;22.20;30.21;101215.06;4487181;28;20565;-66
2023/05/24 02:17:25;;;;;;;1.52;0.63;;;;;;;22.19;30.13;101213.41;4485399;28;20038;-66
2023/05/24 02:19:36;;;;;;;1.15;0.80;;;;;;;22.20;30.53;101208.47;4495528;28;21186;-65
2023/05/24 02:21:46;;;;;;;1.10;0.73;;;;;;;22.18;29.84;101210.88;4485399;28;20038;-66
2023/05/24 02:23:56;;;;;;;1.98;0.70;;;;;;;22.14;30.41;101209.91;4495152;28;20038;-66
2023/05/24 02:26:10;;;;;;;1.77;0.75;;;;;;;22.16;30.02;101208.38;4488107;28;20519;-65
2023/05/24 02:28:20;;;;;;;1.48;0.60;;;;;;;22.19;30.27;101212.53;4487104;28;20030;-66
2023/05/24 02:30:31;;;;;;;1.08;0.60;;;;;;;22.15;29.86;101209.56;4485020;28;20030;-66
2023/05/24 02:32:41;;;;;;;1.23;0.63;;;;;;;22.16;29.81;101202.63;4494762;28;20664;-67
2023/05/24 02:34:52;;;;;;;1.20;0.60;;;;;;;22.18;30.17;101211.69;4486061;28;20069;-66
2023/05/24 02:37:03;;;;;;;1.77;0.88;;;;;;;22.18;30.04;101211.69;4486648;28;20096;-66
2023/05/24 02:39:14;;;;;;;0.45;0.45;;;;;;;22.17;29.81;101212.91;4486913;28;21097;-66
2023/05/24 02:41:25;;;;;;;1.38;0.73;;;;;;;22.19;29.95;101218.28;4488167;28;20032;-66
2023/05/24 02:43:36;;;;;;;1.52;0.70;;;;;;;22.12;30.00;101213.16;4488277;28;20080;-67
2023/05/24 02:45:46;;;;;;;1.30;0.60;;;;;;;22.13;30.27;101211.97;4487836;28;20050;-67
2023/05/24 02:47:56;;;;;;;2.13;0.70;;;;;;;22.15;30.17;101221.06;4488981;28;20038;-67
2023/05/24 02:50:07;;;;;;;1.15;0.60;;;;;;;22.16;30.10;101224.78;4486049;28;20447;-67
2023/05/24 02:52:20;;;;;;;1.08;0.60;;;;;;;22.15;30.39;101223.13;4486717;28;20034;-69
2023/05/24 02:54:30;;;;;;;0.88;0.70;;;;;;;22.08;30.34;101215.09;4496129;28;20583;-67
2023/05/24 02:56:41;;;;;;;0.93;0.40;;;;;;;22.13;30.35;101226.34;4488159;28;20058;-66
2023/05/24 02:58:53;;;;;;;1.58;0.70;;;;;;;22.12;30.03;101221.78;4496807;28;20041;-67
2023/05/24 03:01:03;;;;;;;1.38;0.70;;;;;;;22.14;30.34;101221.41;4489923;28;20096;-67
2023/05/24 03:03:14;;;;;;;0.60;0.52;;;;;;;22.13;30.18;101219.75;4485873;28;20077;-66
2023/05/24 03:05:25;;;;;;;2.13;0.80;;;;;;;22.13;30.09;101219.75;4486011;28;20486;-66
2023/05/24 03:07:35;;;;;;;0.90;0.60;;;;;;;22.15;30.33;101223.94;4496351;28;20486;-67
2023/05/24 03:09:46;;;;;;;1.63;0.80;;;;;;;22.11;29.99;101223.00;4484926;28;20038;-66
2023/05/24 03:11:56;;;;;;;1.35;0.70;;;;;;;22.09;29.82;101224.53;4494562;28;20034;-65
2023/05/24 03:14:08;;;;;;;1.67;0.60;;;;;;;22.11;29.87;101231.63;4485152;28;20097;-66
2023/05/24 03:16:19;;;;;;;1.02;0.60;;;;;;;22.09;29.92;101218.78;4485669;28;20041;-65
2023/05/24 03:18:31;;;;;;;1.88;0.80;;;;;;;22.10;29.96;101232.78;4485463;28;20732;-66
2023/05/24 03:20:42;;;;;;;1.02;0.70;;;;;;;22.09;30.37;101228.25;4472418;28;20637;-66
2023/05/24 03:22:53;;;;;;;1.30;0.57;;;;;;;22.12;30.05;101229.56;4489655;28;20022;-65
2023/05/24 03:25:04;;;;;;;1.88;0.82;;;;;;;22.09;30.33;101225.38;4485090;28;20038;-65
2023/05/24 03:27:14;;;;;;;1.33;0.80;;;;;;;22.06;30.54;101214.63;4484695;28;20089;-66
2023/05/24 03:29:25;;;;;;;1.33;0.85;;;;;;;22.08;30.43;101226.59;4484001;28;20042;-66
2023/05/24 03:31:37;;;;;;;1.23;0.77;;;;;;;22.07;30.22;101233.53;4487944;28;20030;-66
2023/05/24 03:33:48;;;;;;;2.03;0.80;;;;;;;22.04;29.95;101222.75;4501076;28;20040;-66
2023/05/24 03:35:59;;;;;;;1.60;0.73;;;;;;;22.08;30.49;101235.22;4487519;28;20041;-66
2023/05/24 03:38:10;;;;;;;1.73;0.80;;;;;;;22.06;30.02;101231.88;4484678;28;20042;-65
2023/05/24 03:40:24;;;;;;;2.45;0.80;;;;;;;22.06;30.13;101226.13;4485296;28;20722;-65
2023/05/24 03:42:45;;;;;;;1.27;0.60;;;;;;;22.04;30.02;101219.88;4485305;28;20049;-66
2023/05/24 03:44:56;;;;;;;1.70;0.90;;;;;;;22.07;30.22;101227.78;4485955;28;20026;-65
2023/05/24 03:47:06;;;;;;;0.85;0.60;;;;;;;22.05;30.35;101232.22;4487025;28;20140;-66
2023/05/24 03:49:17;;;;;;;1.33;0.80;;;;;;;22.04;30.18;101233.44;4484271;28;20109;-66
2023/05/24 03:51:28;;;;;;;1.55;0.70;;;;;;;22.03;30.55;101238.34;4485360;28;20065;-66
2023/05/24 03:53:38;;;;;;;2.65;0.70;;;;;;;22.05;30.54;101241.69;4484437;28;20035;-65
2023/05/24 03:55:49;;;;;;;1.85;0.80;;;;;;;22.05;30.38;101241.69;4483971;28;20066;-65
2023/05/24 03:58:00;;;;;;;1.73;0.70;;;;;;;22.03;30.64;101241.22;4485897;28;20026;-66
2023/05/24 04:00:11;;;;;;;1.65;0.85;;;;;;;22.03;30.87;101235.47;4485153;28;20055;-66
2023/05/24 04:02:24;;;;;;;2.15;0.73;;;;;;;22.03;30.60;101243.25;4486973;28;20022;-66
2023/05/24 04:04:36;;;;;;;3.03;1.90;;;;;;;22.02;30.64;101244.44;4488272;28;20038;-66
2023/05/24 04:06:46;;;;;;;4.68;2.88;;;;;;;22.01;30.95;101243.59;4491859;28;20030;-66
2023/05/24 04:09:00;;;;;;;4.28;2.50;;;;;;;22.03;31.06;101249.84;4486753;28;20041;-66
2023/05/24 04:11:11;;;;;;;4.15;2.50;;;;;;;21.99;31.17;101237.38;4501674;28;20078;-66
2023/05/24 04:13:21;;;;;;;6.43;3.28;;;;;;;21.99;31.04;101240.25;4485762;28;20044;-66
2023/05/24 04:15:32;;;;;;;6.03;3.67;;;;;;;21.94;30.92;101240.53;4484595;28;20129;-66
2023/05/24 04:17:44;;;;;;;4.32;3.10;;;;;;;22.01;30.94;101257.97;4485787;28;20562;-66
2023/05/24 04:19:55;;;;;;;3.08;2.00;;;;;;;22.00;30.80;101256.31;4492975;28;20038;-66
2023/05/24 04:22:05;;;;;;;2.63;1.80;;;;;;;21.99;31.05;101248.88;4486842;28;20040;-66
2023/05/24 04:24:15;;;;;;;3.08;1.80;;;;;;;21.98;31.08;101246.34;4485656;28;20038;-65
2023/05/24 04:26:29;;;;;;;2.22;1.50;;;;;;;22.01;31.53;101242.75;4494315;28;20034;-67
2023/05/24 04:28:39;;;;;;;1.48;1.00;;;;;;;22.00;31.10;101244.81;4486102;28;20045;-66
2023/05/24 04:30:51;;;;;;;1.33;0.80;;;;;;;22.00;31.34;101244.81;4484689;28;20045;-66
2023/05/24 04:33:02;;;;;;;1.15;0.70;;;;;;;21.99;30.95;101242.31;4486595;28;20089;-66
2023/05/24 04:35:15;;;;;;;1.25;0.75;;;;;;;21.98;31.49;101241.47;4472140;28;20132;-65
2023/05/24 04:37:26;;;;;;;0.80;0.70;;;;;;;21.94;31.00;101236.78;4486159;28;20030;-66
2023/05/24 04:39:36;;;;;;;1.92;1.00;;;;;;;21.95;31.32;101245.06;4502486;28;20045;-66
2023/05/24 04:41:49;;;;;;;1.50;0.70;;;;;;;21.98;31.44;101250.09;4486284;28;20141;-66
2023/05/24 04:44:01;;;;;;;1.80;0.90;;;;;;;21.99;31.45;101253.81;4486084;28;20199;-66
2023/05/24 04:46:11;;;;;;;1.48;0.70;;;;;;;21.98;31.57;101249.22;4485954;28;21273;-66
2023/05/24 04:48:23;;;;;;;2.83;0.90;;;;;;;21.95;31.77;101247.09;4485692;28;20037;-66
2023/05/24 04:50:36;;;;;;;1.35;0.90;;;;;;;21.95;31.86;101245.06;4486081;28;20042;-65
2023/05/24 04:52:46;;;;;;;2.15;0.80;;;;;;;21.95;31.72;101242.19;4488166;28;20925;-66
2023/05/24 04:54:57;;;;;;;2.33;0.90;;;;;;;21.95;31.57;101236.44;4502791;28;20022;-66
2023/05/24 04:57:07;;;;;;;1.52;0.75;;;;;;;21.96;32.36;101231.53;4486814;28;20049;-66
2023/05/24 04:59:18;;;;;;;1.27;0.80;;;;;;;21.94;31.88;101223.28;4488168;28;20052;-66
2023/05/24 05:01:28;;;;;;;1.38;0.70;;;;;;;21.95;32.30;101230.69;4487747;28;20038;-66
2023/05/24 05:03:39;;;;;;;1.95;0.80;;;;;;;21.94;32.42;101223.28;4491154;28;20517;-66
2023/05/24 05:05:50;;;;;;;1.83;0.90;;;;;;;21.94;31.98;101240.53;4488880;28;20691;-66
2023/05/24 05:08:02;;;;;;;1.30;0.60;;;;;;;21.94;32.28;101249.13;4490095;28;20041;-66
2023/05/24 05:10:12;;;;;;;2.03;0.80;;;;;;;21.90;32.36;101241.56;4489104;28;20038;-65
2023/05/24 05:12:23;;;;;;;1.45;0.77;;;;;;;21.89;32.61;101232.13;4492622;28;20030;-66
2023/05/24 05:14:34;;;;;;;2.08;0.80;;;;;;;21.94;32.30;101243.41;4489131;28;20117;-66
2023/05/24 05:16:45;;;;;;;2.00;1.00;;;;;;;21.92;32.66;101248.66;4503051;28;20076;-66
2023/05/24 05:18:55;;;;;;;1.73;0.82;;;;;;;21.90;32.84;101245.28;4487904;28;20141;-65
2023/05/24 05:21:06;;;;;;;1.67;0.90;;;;;;;21.91;32.61;101237.53;4489774;28;20129;-65
2023/05/24 05:23:16;;;;;;;1.60;0.90;;;;;;;21.89;32.54;101246.50;4489065;28;20645;-66
2023/05/24 05:25:27;;;;;;;1.63;0.93;;;;;;;21.89;32.97;101246.50;4488539;28;20030;-66
2023/05/24 05:27:37;;;;;;;1.63;1.02;;;;;;;21.88;32.85;101241.94;4488373;28;20045;-66
2023/05/24 05:29:48;;;;;;;1.65;0.90;;;;;;;21.88;32.79;101239.06;4489667;28;20497;-65
2023/05/24 05:31:58;;;;;;;1.58;0.90;;;;;;;21.92;33.13;101248.66;4490616;28;20108;-65
2023/05/24 05:34:09;;;;;;;1.63;0.90;;;;;;;21.85;33.00;101236.91;4488098;28;20554;-65
2023/05/24 05:36:20;;;;;;;2.33;1.00;;;;;;;21.88;33.22;101233.31;4488495;28;20026;-66
2023/05/24 05:38:30;;;;;;;0.77;0.63;;;;;;;21.91;33.48;101246.16;4504469;28;20141;-66
2023/05/24 05:40:41;;;;;;;2.20;0.77;;;;;;;21.89;33.69;101249.38;4504708;28;20484;-66
2023/05/24 05:42:51;;;;;;;2.00;0.82;;;;;;;21.89;33.64;101242.78;4488558;28;20041;-65
2023/05/24 05:45:02;;;;;;;1.67;0.80;;;;;;;21.73;33.54;101215.94;4487399;28;20065;-65
2023/05/24 05:47:12;;;;;;;1.60;0.80;;;;;;;21.89;33.29;101243.63;4488867;28;20035;-66
2023/05/24 05:49:23;;;;;;;2.63;1.02;;;;;;;21.88;33.43;101252.63;4488505;28;20038;-65
2023/05/24 05:51:33;;;;;;;2.45;0.93;;;;;;;21.87;33.48;101256.66;4488603;28;20100;-65
2023/05/24 05:53:43;;;;;;;2.33;0.90;;;;;;;21.86;33.68;101258.72;4489606;28;20031;-66
2023/05/24 05:55:55;;;;;;;1.77;1.00;;;;;;;21.86;33.80;101261.59;4490779;28;20097;-66
2023/05/24 05:58:05;;;;;;;1.58;1.10;;;;;;;21.87;34.05;101260.38;4488416;28;20616;-68
2023/05/24 06:00:16;;;;;;;1.85;0.93;;;;;;;21.86;33.94;101255.84;4490011;28;20092;-66
2023/05/24 06:02:26;;;;;;;2.13;1.08;;;;;;;21.86;33.87;101266.50;4489028;28;20040;-66
2023/05/24 06:04:37;;;;;;;2.55;1.00;;;;;;;21.86;34.10;101267.34;4488855;28;20034;-66
2023/05/24 06:06:48;;;;;;;1.88;0.93;;;;;;;21.86;33.73;101267.34;4488450;28;20047;-66
2023/05/24 06:08:59;;;;;;;1.67;0.90;;;;;;;21.85;33.87;101264.84;4485437;28;20031;-66
2023/05/24 06:11:09;;;;;;;2.78;0.90;;;;;;;21.87;33.84;101269.00;4488886;28;20031;-65
2023/05/24 06:13:20;;;;;;;1.98;0.90;;;;;;;21.82;34.25;101266.38;4486637;28;20026;-66
2023/05/24 06:15:32;;;;;;;2.13;1.02;;;;;;;21.86;33.94;101272.25;4488764;28;20212;-66
2023/05/24 06:17:42;;;;;;;1.98;1.10;;;;;;;21.85;34.36;101270.59;4488785;28;20035;-66
2023/05/24 06:19:54;;;;;;;2.30;1.05;;;;;;;21.86;34.63;101278.00;4488298;28;20049;-66
2023/05/24 06:22:05;;;;;;;2.05;1.08;;;;;;;21.84;34.69;101283.25;4488870;28;20109;-66
2023/05/24 06:24:40;;;;;;;2.53;1.00;;;;;;;21.85;34.60;101282.91;4489081;28;20215;-65
2023/05/24 06:26:51;;;;;;;1.85;1.15;;;;;;;21.82;34.37;101277.03;4487296;28;20640;-65
2023/05/24 06:29:02;;;;;;;2.50;1.20;;;;;;;21.82;34.44;101272.13;4487608;28;20093;-66
2023/05/24 06:31:12;;;;;;;2.35;1.17;;;;;;;21.82;34.64;101275.00;4487922;28;20029;-66
2023/05/24 06:33:23;;;;;;;1.98;1.23;;;;;;;21.77;34.59;101266.59;4488717;28;20034;-65
2023/05/24 06:35:33;;;;;;;2.25;1.10;;;;;;;21.84;35.22;101277.50;4487228;28;20514;-66
2023/05/24 06:37:44;;;;;;;1.65;1.00;;;;;;;21.77;35.14;101263.72;4486038;28;20846;-65
2023/05/24 06:39:54;;;;;;;2.47;1.50;;;;;;;21.80;35.14;101268.75;4487706;28;20097;-66
2023/05/24 06:42:05;;;;;;;2.60;1.10;;;;;;;21.82;36.12;101277.88;4502922;28;20049;-66
2023/05/24 06:44:22;;;;;;;2.17;1.10;;;;;;;21.71;35.38;101262.28;4492642;28;20121;-66
2023/05/24 06:46:33;;;;;;;2.88;1.10;;;;;;;21.84;35.33;101280.38;4485623;28;20230;-65
2023/05/24 06:48:43;;;;;;;2.75;1.20;;;;;;;21.83;35.62;101279.56;4493589;28;20033;-65
2023/05/24 06:50:54;;;;;;;2.30;1.23;;;;;;;21.82;35.77;101272.13;4487248;28;20061;-65
2023/05/24 06:53:05;;;;;;;3.47;1.45;;;;;;;21.78;35.88;101256.81;4485915;28;20065;-65
2023/05/24 06:55:15;;;;;;;2.45;1.15;;;;;;;21.82;35.67;101265.53;4488567;28;20125;-65
2023/05/24 06:57:26;;;;;;;2.30;1.10;;;;;;;21.84;35.85;101281.22;4489660;28;20046;-66
2023/05/24 06:59:36;;;;;;;2.92;1.30;;;;;;;21.84;35.62;101286.13;4486309;28;20982;-65
2023/05/24 07:01:50;;;;;;;3.28;1.30;;;;;;;21.84;35.60;101289.00;4488313;28;20405;-66
2023/05/24 07:04:00;;;;;;;3.25;1.33;;;;;;;21.80;36.00;101274.50;4486761;28;20097;-65
2023/05/24 07:06:12;;;;;;;2.85;1.13;;;;;;;21.85;35.68;101294.38;4487081;28;20097;-65
2023/05/24 07:08:26;;;;;;;2.10;1.20;;;;;;;21.85;36.13;101290.69;4486294;28;20043;-66
2023/05/24 07:10:37;;;;;;;2.90;1.13;;;;;;;21.84;36.16;101292.72;4502525;28;20061;-66
2023/05/24 07:12:47;;;;;;;2.38;1.15;;;;;;;21.85;36.05;101288.66;4487452;28;20570;-66
2023/05/24 07:14:58;;;;;;;2.38;1.10;;;;;;;21.86;35.88;101296.09;4488129;28;20069;-66
2023/05/24 07:17:08;;;;;;;2.42;1.42;;;;;;;21.85;36.19;101293.56;4487760;28;20448;-65
2023/05/24 07:19:20;;;;;;;4.50;1.38;;;;;;;21.86;36.23;101295.25;4487015;28;20852;-66
2023/05/24 07:21:30;;;;;;;2.20;1.20;;;;;;;21.86;36.60;101292.38;4485880;28;20046;-66
2023/05/24 07:23:41;;;;;;;2.28;1.30;;;;;;;21.85;36.10;101293.56;4486972;28;20037;-66
2023/05/24 07:25:51;;;;;;;2.50;1.33;;;;;;;21.86;36.44;101292.38;4484613;28;20078;-65
2023/05/24 07:28:02;;;;;;;2.60;1.30;;;;;;;21.86;36.31;101293.22;4487530;28;20049;-65
2023/05/24 07:30:13;;;;;;;2.65;1.20;;;;;;;21.86;36.25;101281.72;4486770;28;20037;-66
2023/05/24 07:32:23;;;;;;;2.60;1.30;;;;;;;21.81;36.49;101276.22;4487182;28;20117;-66
2023/05/24 07:34:34;;;;;;;2.40;1.20;;;;;;;21.86;36.02;101290.34;4488329;28;20201;-65
2023/05/24 07:36:47;;;;;;;1.73;1.05;;;;;;;21.85;36.66;101293.56;4486459;28;20118;-66
2023/05/24 07:38:59;;;;;;;2.35;1.08;;;;;;;21.84;36.82;101292.72;4490618;28;20027;-66
2023/05/24 07:41:13;;;;;;;2.63;1.20;;;;;;;21.84;36.97;101291.88;4487451;28;20046;-65
2023/05/24 07:43:23;;;;;;;2.40;1.10;;;;;;;21.83;36.66;101295.97;4487445;28;20031;-65
2023/05/24 07:45:33;;;;;;;2.13;1.27;;;;;;;21.84;37.16;101294.75;4487111;28;20035;-65
2023/05/24 07:47:44;;;;;;;2.50;1.17;;;;;;;21.86;36.70;101306.72;4485236;28;21007;-66
2023/05/24 07:49:55;;;;;;;2.80;1.27;;;;;;;21.82;36.86;101294.25;4487747;28;20038;-65
2023/05/24 07:52:05;;;;;;;2.75;1.38;;;;;;;21.86;36.84;101295.25;4486273;28;20038;-67
2023/05/24 07:54:16;;;;;;;2.38;1.15;;;;;;;21.83;36.59;101302.56;4486930;28;20034;-66
2023/05/24 07:56:26;;;;;;;3.08;1.30;;;;;;;21.85;36.46;101299.31;4487695;28;20491;-66
2023/05/24 07:58:39;;;;;;;2.65;1.25;;;;;;;21.84;36.46;101297.63;4486918;28;20040;-66
2023/05/24 08:00:49;;;;;;;2.38;1.20;;;;;;;21.84;36.94;101291.88;4486814;28;20145;-65
2023/05/24 08:03:00;;;;;;;3.83;1.20;;;;;;;21.84;36.81;101283.25;4487982;28;20031;-65
2023/05/24 08:05:11;;;;;;;2.90;1.13;;;;;;;21.84;36.91;101280.38;4487218;28;20479;-65
2023/05/24 08:07:22;;;;;;;3.45;1.45;;;;;;;21.83;37.23;101284.47;4487407;28;20037;-67
2023/05/24 08:09:37;;;;;;;2.35;1.40;;;;;;;21.75;36.81;101265.28;4501767;28;20566;-65
2023/05/24 08:11:47;;;;;;;2.40;1.10;;;;;;;21.83;36.88;101288.19;4486536;28;21460;-66
2023/05/24 08:13:57;;;;;;;2.17;1.15;;;;;;;21.83;37.38;101281.59;4487338;28;20050;-65
2023/05/24 08:16:08;;;;;;;2.42;1.30;;;;;;;21.85;37.53;101296.44;4502700;28;20022;-65
2023/05/24 08:18:18;;;;;;;2.30;1.17;;;;;;;21.84;37.23;101297.63;4501237;28;20080;-65
2023/05/24 08:20:29;;;;;;;3.75;1.40;;;;;;;21.83;36.85;101295.97;4486129;28;20073;-65
2023/05/24 08:22:39;;;;;;;2.60;1.15;;;;;;;21.77;37.39;101280.97;4485736;28;20069;-66
2023/05/24 08:24:51;;;;;;;2.58;1.25;;;;;;;21.78;37.15;101282.69;4487722;28;20031;-65
2023/05/24 08:27:03;;;;;;;2.20;1.20;;;;;;;21.82;37.14;101289.38;4488464;28;20088;-65
2023/05/24 08:29:15;;;;;;;2.28;1.15;;;;;;;21.82;37.91;101288.50;4488225;28;21377;-66
2023/05/24 08:31:26;;;;;;;2.25;1.20;;;;;;;21.81;38.73;101281.94;4485691;28;20566;-67
2023/05/24 08:33:37;;;;;;;2.80;0.98;;;;;;;21.81;38.44;101287.69;4504336;28;20037;-66
2023/05/24 08:35:49;;;;;;;2.70;1.27;;;;;;;21.78;38.23;101282.69;4488969;28;20033;-66
2023/05/24 08:37:59;;;;;;;2.65;1.20;;;;;;;21.81;37.89;101301.22;4489425;28;21876;-65
2023/05/24 08:40:10;;;;;;;2.80;1.20;;;;;;;21.81;37.16;101296.31;4488999;28;20056;-66
2023/05/24 08:42:23;;;;;;;2.20;1.25;;;;;;;21.82;37.62;101305.75;4489031;28;20030;-65
2023/05/24 08:45:02;;;;;;;2.35;1.02;;;;;;;21.83;36.81;101305.44;4481789;28;20044;-66
2023/05/24 08:47:13;;;;;;;2.30;1.30;;;;;;;21.80;36.53;101282.31;4489551;28;20035;-66
2023/05/24 08:49:24;;;;;;;1.95;1.20;;;;;;;21.81;35.88;101293.44;4490118;28;20034;-66
2023/05/24 08:51:37;;;;;;;2.75;1.05;;;;;;;21.77;35.76;101275.22;4490308;28;20589;-66
2023/05/24 08:53:49;;;;;;;1.65;1.00;;;;;;;21.83;35.96;101284.47;4488297;28;22303;-65
2023/05/24 08:56:00;;;;;;;2.50;1.13;;;;;;;21.82;36.47;101291.38;4490519;28;21368;-66
2023/05/24 08:58:12;;;;;;;2.70;1.33;;;;;;;21.81;36.24;101293.44;4490175;28;20034;-66
2023/05/24 09:00:22;;;;;;;2.38;1.17;;;;;;;21.81;35.14;101287.69;4489274;28;20165;-65
2023/05/24 09:02:33;;;;;;;2.35;1.15;;;;;;;21.81;35.09;101292.59;4490997;28;20049;-66
2023/05/24 09:04:47;;;;;;;2.88;1.17;;;;;;;21.82;34.76;101289.38;4488871;28;20101;-66
2023/05/24 09:06:58;;;;;;;1.83;1.00;;;;;;;21.81;35.46;101293.44;4489242;28;20026;-65
2023/05/24 09:09:10;;;;;;;1.90;1.23;;;;;;;21.80;35.84;101297.50;4490017;28;20038;-65
2023/05/24 09:11:23;;;;;;;2.10;1.13;;;;;;;21.78;34.95;101294.16;4497686;28;20045;-65
2023/05/24 09:13:34;;;;;;;2.15;1.30;;;;;;;21.76;35.21;101284.22;4488433;28;20026;-66
2023/05/24 09:15:44;;;;;;;2.10;1.00;;;;;;;21.80;34.89;101286.00;4490066;28;20034;-66
2023/05/24 09:17:55;;;;;;;2.03;1.08;;;;;;;21.80;34.99;101291.75;4489201;28;20049;-66
2023/05/24 09:20:09;;;;;;;2.90;1.30;;;;;;;21.81;35.39;101304.94;4487661;28;20069;-66
2023/05/24 09:22:24;;;;;;;1.77;1.00;;;;;;;21.80;35.06;101299.56;4490313;28;20746;-66
2023/05/24 09:24:48;;;;;;;1.13;0.90;;;;;;;21.77;35.73;101297.41;4472311;28;21229;-65
2023/05/24 09:27:04;;;;;;;2.50;1.20;;;;;;;21.79;35.86;101292.97;4487699;28;20616;-66
2023/05/24 09:29:15;;;;;;;2.45;1.05;;;;;;;21.78;35.91;101294.16;4488825;28;20050;-65
2023/05/24 09:31:38;;;;;;;2.35;1.10;;;;;;;21.79;35.82;101301.56;4503062;28;20111;-66
2023/05/24 09:33:49;;;;;;;2.95;1.30;;;;;;;21.76;35.57;101296.56;4490610;28;20822;-66
2023/05/24 09:36:01;;;;;;;2.30;1.13;;;;;;;21.79;35.67;101304.44;4488553;28;20285;-66
2023/05/24 09:38:19;;;;;;;2.42;1.30;;;;;;;21.79;36.09;101297.84;4488270;28;20034;-66
2023/05/24 09:40:29;;;;;;;3.30;1.40;;;;;;;21.80;35.25;101296.69;4489570;28;20033;-66
2023/05/24 09:42:40;;;;;;;1.75;1.00;;;;;;;21.79;35.52;101301.56;4481184;28;20038;-66
2023/05/24 09:45:10;;;;;;;2.53;1.20;;;;;;;21.79;35.68;101300.72;4487706;28;20026;-66
2023/05/24 09:47:20;;;;;;;2.38;1.20;;;;;;;21.79;35.51;101304.44;4475605;28;20034;-66
2023/05/24 09:49:32;;;;;;;2.45;1.10;;;;;;;21.78;35.55;101294.16;4479554;28;20038;-65
2023/05/24 09:51:43;;;;;;;1.65;1.10;;;;;;;21.79;35.51;101295.84;4480652;28;20349;-66
2023/05/24 09:54:00;;;;;;;1.90;1.20;;;;;;;21.79;35.98;101301.56;4474419;28;20026;-65
2023/05/24 09:56:11;;;;;;;2.25;1.10;;;;;;;21.78;35.60;101293.31;4486222;28;20617;-66
2023/05/24 09:58:21;;;;;;;2.45;1.02;;;;;;;21.68;35.21;101276.50;4488948;28;20415;-65
2023/05/24 10:00:35;;;;;;;3.00;1.25;;;;;;;21.78;35.09;101299.91;4487648;28;20050;-65
2023/05/24 10:02:59;;;;;;;1.88;1.10;;;;;;;21.78;34.93;101299.06;4496671;28;20767;-65
2023/05/24 10:05:11;;;;;;;2.10;1.00;;;;;;;21.78;35.42;101299.06;4489786;28;20039;-65
2023/05/24 10:07:21;;;;;;;2.40;1.02;;;;;;;21.78;35.94;101297.03;4488535;28;20030;-65
2023/05/24 10:09:33;;;;;;;1.60;1.23;;;;;;;21.75;35.61;101297.75;4486366;28;20715;-66
2023/05/24 10:11:44;;;;;;;2.33;1.20;;;;;;;21.75;35.90;101294.88;4488550;28;20112;-65
2023/05/24 10:13:55;;;;;;;2.22;1.13;;;;;;;21.76;35.67;101295.72;4487272;28;20065;-66